createdAt,value
2023-02-12T00:03:07.591Z,17.40
2023-02-12T00:08:09.279Z,18.70
2023-02-12T00:13:14.873Z,18.30
2023-02-12T00:18:16.218Z,17.50
2023-02-12T00:23:17.505Z,17.55
2023-02-12T00:28:18.866Z,18.90
2023-02-12T00:33:20.263Z,16.70
2023-02-12T00:38:21.590Z,17.70
2023-02-12T00:43:22.947Z,19.35
2023-02-12T00:48:24.225Z,19.48
2023-02-12T00:53:25.563Z,18.37
2023-02-12T00:58:26.963Z,18.63
2023-02-12T01:03:28.275Z,17.80
2023-02-12T01:08:30.143Z,16.95
2023-02-12T01:13:32.182Z,17.27
2023-02-12T01:18:33.512Z,17.20
2023-02-12T01:23:34.759Z,18.45
2023-02-12T01:28:36.708Z,18.47
2023-02-12T01:33:38.049Z,18.23
2023-02-12T01:38:39.317Z,18.23
2023-02-12T01:43:40.848Z,18.07
2023-02-12T01:48:43.386Z,17.27
2023-02-12T01:53:49.059Z,17.63
2023-02-12T01:58:51.154Z,18.08
2023-02-12T02:03:53.984Z,18.25
2023-02-12T02:08:56.050Z,17.43
2023-02-12T02:14:16.232Z,18.55
2023-02-12T02:19:30.358Z,17.70
2023-02-12T02:24:39.496Z,17.70
2023-02-12T02:29:43.831Z,18.67
2023-02-12T02:34:45.091Z,17.53
2023-02-12T02:39:58.324Z,17.55
2023-02-12T02:45:13.183Z,16.27
2023-02-12T02:50:16.867Z,16.35
2023-02-12T02:55:19.197Z,16.67
2023-02-12T03:00:22.248Z,16.60
2023-02-12T03:05:33.512Z,16.65
2023-02-12T03:10:38.268Z,16.33
2023-02-12T03:15:44.469Z,15.98
2023-02-12T03:20:48.639Z,16.38
2023-02-12T03:25:59.313Z,16.10
2023-02-12T03:31:10.745Z,15.95
2023-02-12T03:36:30.776Z,15.57
2023-02-12T03:41:37.058Z,14.30
2023-02-12T03:46:50.503Z,15.52
2023-02-12T03:51:51.865Z,14.83
2023-02-12T03:57:10.433Z,15.23
2023-02-12T04:02:12.384Z,15.10
2023-02-12T04:07:13.968Z,14.07
2023-02-12T04:12:25.270Z,14.20
2023-02-12T04:17:30.499Z,13.70
2023-02-12T04:22:37.794Z,15.27
2023-02-12T04:27:59.386Z,14.20
2023-02-12T04:33:02.575Z,14.55
2023-02-12T04:38:11.361Z,13.77
2023-02-12T04:43:12.630Z,13.43
2023-02-12T04:48:14.945Z,14.13
2023-02-12T04:53:16.399Z,14.33
2023-02-12T04:58:18.028Z,13.57
2023-02-12T05:03:19.330Z,13.32
2023-02-12T05:08:20.604Z,12.97
2023-02-12T05:13:21.916Z,14.20
2023-02-12T05:18:23.298Z,13.57
2023-02-12T05:23:28.447Z,14.20
2023-02-12T05:28:30.247Z,14.57
2023-02-12T05:33:31.674Z,13.27
2023-02-12T05:38:33.818Z,13.65
2023-02-12T05:43:35.071Z,14.17
2023-02-12T05:48:37.152Z,14.85
2023-02-12T05:53:39.268Z,13.85
2023-02-12T05:58:41.665Z,14.17
2023-02-12T06:03:43.554Z,14.73
2023-02-12T06:08:49.152Z,14.87
2023-02-12T06:13:50.841Z,15.10
2023-02-12T06:18:52.961Z,14.35
2023-02-12T06:23:54.413Z,14.30
2023-02-12T06:28:55.715Z,14.90
2023-02-12T06:33:57.876Z,14.57
2023-02-12T06:39:00.908Z,13.65
2023-02-12T06:44:02.253Z,14.20
2023-02-12T06:49:03.771Z,13.87
2023-02-12T06:54:05.043Z,14.73
2023-02-12T06:59:06.332Z,15.07
2023-02-12T07:04:07.755Z,14.77
2023-02-12T07:09:09.148Z,13.43
2023-02-12T07:14:14.729Z,12.57
2023-02-12T07:19:16.421Z,13.77
2023-02-12T07:24:20.720Z,14.43
2023-02-12T07:29:22.010Z,17.92
2023-02-12T07:34:23.277Z,17.20
2023-02-12T07:39:24.606Z,15.63
2023-02-12T07:44:25.903Z,17.65
2023-02-12T07:49:27.175Z,18.97
2023-02-12T07:54:28.562Z,17.45
2023-02-12T07:59:29.973Z,18.17
2023-02-12T08:04:31.424Z,17.53
2023-02-12T08:09:32.784Z,18.85
2023-02-12T08:14:34.171Z,17.97
2023-02-12T08:19:35.636Z,17.50
2023-02-12T08:24:36.892Z,17.30
2023-02-12T08:29:38.187Z,17.53
2023-02-12T08:34:39.500Z,18.27
2023-02-12T08:39:40.806Z,17.07
2023-02-12T08:44:42.514Z,15.63
2023-02-12T08:49:43.859Z,14.70
2023-02-12T08:54:45.129Z,15.87
2023-02-12T08:59:48.444Z,16.77
2023-02-12T09:04:49.734Z,17.57
2023-02-12T09:09:51.012Z,18.23
2023-02-12T09:14:52.399Z,14.77
2023-02-12T09:19:54.026Z,16.27
2023-02-12T09:24:55.272Z,17.17
2023-02-12T09:29:56.540Z,17.63
2023-02-12T09:34:57.828Z,16.55
2023-02-12T09:39:59.111Z,15.82
2023-02-12T09:45:19.425Z,15.80
2023-02-12T09:50:36.258Z,16.08
2023-02-12T09:55:37.556Z,15.07
2023-02-12T10:00:38.899Z,14.15
2023-02-12T10:05:51.152Z,13.07
2023-02-12T10:10:53.837Z,13.17
2023-02-12T10:16:07.419Z,12.63
2023-02-12T10:21:08.789Z,12.03
2023-02-12T10:26:15.424Z,10.77
2023-02-12T10:31:24.596Z,8.25
2023-02-12T10:36:45.812Z,8.50
2023-02-12T10:41:47.154Z,7.63
2023-02-12T10:46:48.559Z,8.23
2023-02-12T10:52:02.243Z,8.20
2023-02-12T10:57:26.603Z,5.93
2023-02-12T11:02:29.232Z,5.53
2023-02-12T11:07:45.616Z,4.80
2023-02-12T11:12:48.155Z,4.43
2023-02-12T11:18:00.688Z,5.00
2023-02-12T11:23:03.131Z,5.60
2023-02-12T11:28:10.750Z,4.83
2023-02-12T11:33:16.526Z,6.30
2023-02-12T11:38:24.636Z,5.50
2023-02-12T11:43:27.468Z,6.25
2023-02-12T11:48:33.860Z,5.47
2023-02-12T11:53:37.893Z,6.37
2023-02-12T11:58:39.304Z,6.10
2023-02-12T12:03:53.040Z,9.00
2023-02-12T12:08:57.962Z,7.78
2023-02-12T12:14:11.109Z,10.02
2023-02-12T12:19:34.613Z,7.97
2023-02-12T12:24:45.089Z,10.00
2023-02-12T12:30:00.944Z,8.37
2023-02-12T12:35:02.367Z,8.20
2023-02-12T12:40:26.978Z,7.63
2023-02-12T12:45:43.465Z,6.57
2023-02-12T12:50:47.896Z,8.77
2023-02-12T12:55:49.241Z,10.17
2023-02-12T13:01:09.457Z,6.78
2023-02-12T13:06:23.213Z,6.93
2023-02-12T13:11:33.796Z,6.80
2023-02-12T13:16:52.868Z,7.32
2023-02-12T13:21:58.106Z,6.63
2023-02-12T13:27:06.059Z,6.05
2023-02-12T13:32:16.502Z,6.45
2023-02-12T13:37:20.415Z,5.30
2023-02-12T13:42:29.791Z,6.03
2023-02-12T13:47:31.161Z,8.53
2023-02-12T13:52:48.221Z,5.72
2023-02-12T13:58:08.487Z,5.18
2023-02-12T14:03:09.841Z,5.03
2023-02-12T14:08:28.050Z,5.32
2023-02-12T14:13:34.183Z,5.00
2023-02-12T14:18:36.477Z,5.10
2023-02-12T14:23:45.872Z,5.40
2023-02-12T14:28:52.051Z,4.90
2023-02-12T14:34:05.508Z,4.40
2023-02-12T14:39:19.083Z,3.70
2023-02-12T14:44:22.735Z,4.55
2023-02-12T14:49:27.864Z,3.40
2023-02-12T14:54:43.427Z,3.30
2023-02-12T14:59:45.224Z,3.95
2023-02-12T15:04:46.560Z,3.13
2023-02-12T15:09:51.848Z,3.35
2023-02-12T15:15:12.128Z,3.55
2023-02-12T15:20:19.928Z,3.70
2023-02-12T15:25:28.806Z,3.70
2023-02-12T15:30:35.473Z,3.13
2023-02-12T15:35:37.820Z,3.05
2023-02-12T15:40:53.182Z,3.10
2023-02-12T15:45:54.707Z,3.10
2023-02-12T15:51:16.370Z,2.80
2023-02-12T15:56:20.381Z,2.93
2023-02-12T16:01:23.161Z,3.00
2023-02-12T16:06:25.650Z,3.13
2023-02-12T16:11:27.361Z,3.80
2023-02-12T16:16:30.116Z,3.35
2023-02-12T16:21:33.465Z,3.57
2023-02-12T16:26:34.953Z,3.85
2023-02-12T16:31:36.402Z,3.88
2023-02-12T16:36:45.757Z,6.00
2023-02-12T16:41:55.041Z,4.22
2023-02-12T16:46:58.457Z,4.30
2023-02-12T16:52:20.198Z,4.80
2023-02-12T16:57:21.467Z,4.97
2023-02-12T17:02:22.757Z,5.23
2023-02-12T17:07:27.448Z,6.38
2023-02-12T17:12:28.758Z,5.50
2023-02-12T17:17:30.132Z,6.00
2023-02-12T17:22:31.429Z,5.70
2023-02-12T17:27:32.702Z,6.80
2023-02-12T17:32:34.014Z,7.28
2023-02-12T17:37:35.250Z,7.27
2023-02-12T17:42:36.662Z,8.70
2023-02-12T17:47:39.890Z,8.32
2023-02-12T17:52:41.441Z,9.00
2023-02-12T17:57:42.821Z,9.00
2023-02-12T18:02:44.067Z,11.70
2023-02-12T18:07:45.343Z,11.20
2023-02-12T18:12:46.665Z,11.27
2023-02-12T18:17:47.985Z,10.47
2023-02-12T18:22:50.103Z,11.20
2023-02-12T18:27:51.395Z,11.90
2023-02-12T18:32:52.698Z,11.23
2023-02-12T18:37:53.945Z,11.27
2023-02-12T18:42:55.216Z,10.60
2023-02-12T18:47:56.474Z,14.20
2023-02-12T18:52:57.757Z,12.73
2023-02-12T18:57:59.055Z,12.00
2023-02-12T19:03:00.401Z,9.82
2023-02-12T19:08:02.084Z,11.00
2023-02-12T19:13:03.388Z,10.10
2023-02-12T19:18:04.812Z,9.17
2023-02-12T19:23:06.180Z,10.20
2023-02-12T19:28:07.588Z,12.10
2023-02-12T19:33:08.926Z,12.03
2023-02-12T19:38:10.233Z,13.07
2023-02-12T19:43:11.637Z,11.43
2023-02-12T19:48:12.955Z,9.32
2023-02-12T19:53:14.444Z,12.60
2023-02-12T19:58:15.835Z,14.27
2023-02-12T20:03:18.126Z,15.10
2023-02-12T20:08:20.011Z,13.90
2023-02-12T20:13:22.508Z,15.70
2023-02-12T20:18:23.879Z,17.63
2023-02-12T20:23:25.504Z,15.83
2023-02-12T20:28:26.923Z,15.02
2023-02-12T20:33:28.279Z,13.63
2023-02-12T20:38:30.601Z,12.95
2023-02-12T20:43:32.648Z,11.07
2023-02-12T20:48:33.942Z,12.57
2023-02-12T20:53:35.582Z,11.48
2023-02-12T20:58:38.364Z,12.17
2023-02-12T21:03:40.137Z,13.23
2023-02-12T21:08:41.894Z,12.88
2023-02-12T21:13:53.714Z,14.90
2023-02-12T21:19:04.138Z,14.15
2023-02-12T21:24:07.195Z,13.30
2023-02-12T21:29:08.525Z,12.80
2023-02-12T21:34:12.757Z,12.93
2023-02-12T21:39:15.634Z,12.37
2023-02-12T21:44:17.850Z,13.52
2023-02-12T21:49:25.043Z,14.70
2023-02-12T21:54:26.905Z,14.13
2023-02-12T21:59:30.800Z,14.50
2023-02-12T22:04:33.100Z,11.93
2023-02-12T22:09:34.433Z,14.18
2023-02-12T22:14:35.711Z,13.07
2023-02-12T22:19:37.028Z,12.07
2023-02-12T22:24:38.364Z,12.45
2023-02-12T22:29:40.722Z,12.93
2023-02-12T22:34:42.003Z,12.98
2023-02-12T22:39:43.300Z,14.10
2023-02-12T22:44:44.582Z,13.70
2023-02-12T22:49:45.867Z,13.93
2023-02-12T22:54:47.166Z,13.90
2023-02-12T22:59:51.431Z,11.93
2023-02-12T23:04:52.738Z,11.40
2023-02-12T23:09:54.082Z,11.20
2023-02-12T23:14:55.405Z,10.27
2023-02-12T23:19:56.719Z,10.07
2023-02-12T23:24:58.214Z,10.95
2023-02-12T23:29:59.518Z,12.03
2023-02-12T23:35:00.825Z,12.32
2023-02-12T23:40:02.135Z,12.05
2023-02-12T23:45:03.473Z,11.63
2023-02-12T23:50:05.348Z,10.98
2023-02-12T23:55:06.952Z,12.03
